Port Lavaca, TX (77979)

7:02 AM CDT on September 21, 2017 (GMT -0500)
Alamo heights | | Change Station

Elev 36 ft 28.61 °N, 96.63 °W | Updated 1 minute ago

Clear
Clear
80.1 °F
Feels Like 86 °F
N
0.0
Wind Variable Wind from SE
Gusts 0.0 mph

Today
High -- | Low -- °F
--% Chance of Precip.
Yesterday
High -- | Low -- °F
Precip. -- in
Pressure 29.92 in
Visibility 6.0 miles
Clouds Clear
Heat Index 86 °F
Dew Point 77 °F
Humidity 89%
Rainfall 0.00 in
Snow Depth Not available.
7:14 AM 7:23 PM
New Moon, 2% visible
METAR KVCT 211151Z 12004KT 6SM BR CLR 25/24 A2992 RMK AO2 SLP131 T02500239 10261 20250 53002 $
Pressure 29.92 in
Visibility 6.0 miles
Clouds Clear
Heat Index 86 °F
Dew Point 77 °F
Humidity 89%
Rainfall 0.00 in
Snow Depth Not available.
7:14 AM 7:23 PM
New Moon, 2% visible
METAR KVCT 211151Z 12004KT 6SM BR CLR 25/24 A2992 RMK AO2 SLP131 T02500239 10261 20250 53002 $

Get Severe Weather Alerts

Thanks for signing up!

Be on the lookout for a verification email in your inbox.

You'll start receiving the daily forecast at 6 AM.

×

10-Day Weather Forecast

Almanac

Astronomy

Sep. 21, 2017 Rise Set
Actual Time
Civil Twilight
Nautical Twilight
Astronomical Twilight
Moon
Length of Visible Light
Length of Day
Tomorrow will be .
, % of the Moon is Illuminated

Today's Extremes

State Highs State Lows

Community

WunderPhotos

Category 6

Welcome to Category 6. This is the collective home for Weather Underground's featured writeups by Dr. Jeff Masters (right), Bob Henson (left), Chris Burt, and other regular contributors.

Nearby

Air Quality

  Air Quality AQ Index Pollutant
Not available.

Snow Depth

Station Depth Elevation

Earthquake Activity

City Distance Mag. Time & Date
Minimum magnitude displayed is 2.5.

Coastal Water Temperatures

Place Temperature

Stations

Nearby Weather Stations

Station Location Temp. Windchill Dew Point Humidity Wind Precip. Elev Updated Type
                   

Watches & Warnings

There are currently no watches in effect.